Time;durP1;ratioP1;P1;durP2;ratioP2;P2;SDS_P1;SDS_P2;PMS_P1;PMS_P2;Temp;Humidity;BMP_temperature;BMP_pressure;BME280_temperature;BME280_humidity;BME280_pressure;Samples;Min_cycle;Max_cycle;Signal;HPM_P1;HPM_P2
2022/10/16 09:39:51;;;;;;;;;;;;;;;19.32;63.89;97171.75;4272291;27;10240;-66
2022/10/16 09:41:56;;;;;;;;;;;;;;;19.63;63.75;97171.31;4259369;27;5652;-66
2022/10/16 09:44:01;;;;;;;;;;;;;;;19.86;63.23;97170.34;4265380;27;5632;-67
2022/10/16 09:46:06;;;;;;;;;;;;;;;20.06;62.84;97180.63;4265521;27;6959;-68
2022/10/16 09:48:13;;;;;;;;;;;;;;;20.19;62.64;97166.88;4265649;27;6314;-67
2022/10/16 09:50:26;;;;;;;;;;;;;;;20.32;62.02;97174.56;4257013;27;5632;-68
2022/10/16 09:52:30;;;;;;;;;;;;;;;20.44;61.74;97177.19;4257029;27;5628;-67
2022/10/16 09:54:32;;;;;;;;;;;;;;;20.52;61.71;97173.28;4263382;27;5705;-67
2022/10/16 09:56:39;;;;;;;;;;;;;;;20.60;61.85;97172.84;4255898;27;5787;-67
2022/10/16 09:58:51;;;;;;;;;;;;;;;20.63;61.56;97169.69;4252460;27;5737;-67
2022/10/16 10:00:55;;;;;;;;;;;;;;;20.72;61.18;97178.09;4257673;27;6584;-67
2022/10/16 10:02:58;;;;;;;;;;;;;;;20.76;61.12;97174.69;4252233;27;5803;-67
2022/10/16 10:05:02;;;;;;;;;;;;;;;20.79;60.81;97178.75;4259400;27;5708;-67
2022/10/16 10:07:04;;;;;;;;;;;;;;;20.82;60.58;97172.88;4260211;27;5617;-67
2022/10/16 10:09:18;;;;;;;;;;;;;;;20.86;60.74;97171.34;4254096;27;5646;-67
2022/10/16 10:11:42;;;;;;;;;;;;;;;20.89;60.10;97168.13;4253456;27;5625;-67
2022/10/16 10:13:45;;;;;;;;;;;;;;;20.95;59.58;97169.81;4255402;27;5837;-67
2022/10/16 10:15:48;;;;;;;;;;;;;;;21.02;59.53;97166.94;4260016;27;5654;-68
2022/10/16 10:17:54;;;;;;;;;;;;;;;21.07;59.61;97158.97;4260747;27;5636;-67
2022/10/16 10:20:00;;;;;;;;;;;;;;;21.09;59.49;97157.63;4252834;27;5763;-66
2022/10/16 10:22:14;;;;;;;;;;;;;;;21.13;59.10;97160.63;4258213;27;5876;-66
2022/10/16 10:24:19;;;;;;;;;;;;;;;21.16;58.89;97154.75;4263107;27;7676;-67
2022/10/16 10:26:28;;;;;;;;;;;;;;;21.18;59.03;97163.38;4261156;27;5091;-67
2022/10/16 10:28:55;;;;;;;;;;;;;;;21.17;58.59;97161.75;4261262;27;5644;-66
2022/10/16 10:31:04;;;;;;;;;;;;;;;21.18;58.33;97160.69;4257898;27;5662;-65
2022/10/16 10:33:21;;;;;;;;;;;;;;;21.20;58.14;97164.75;4257594;27;5672;-66
2022/10/16 10:35:37;;;;;;;;;;;;;;;21.18;58.10;97158.81;4261745;27;5628;-67
2022/10/16 10:37:54;;;;;;;;;;;;;;;21.16;58.05;97158.25;4261922;27;6690;-67
2022/10/16 10:40:08;;;;;;;;;;;;;;;21.19;57.95;97165.00;4270720;27;5800;-67
2022/10/16 10:42:25;;;;;;;;;;;;;;;21.20;57.62;97163.94;4264157;27;5619;-66
2022/10/16 10:44:57;;;;;;;;;;;;;;;21.20;57.58;97158.56;4257576;27;5828;-67
2022/10/16 10:47:16;;;;;;;;;;;;;;;21.19;57.35;97162.31;4252705;27;5614;-67
2022/10/16 10:49:36;;;;;;;;;;;;;;;21.17;57.30;97159.06;4261602;27;5799;-67
2022/10/16 10:51:50;;;;;;;;;;;;;;;21.17;57.47;97157.19;4261681;27;6338;-66
2022/10/16 10:53:59;;;;;;;;;;;;;;;21.20;56.82;97163.94;4265640;27;5755;-66
2022/10/16 10:56:12;;;;;;;;;;;;;;;21.20;57.01;97153.19;4259534;27;5689;-67
2022/10/16 10:58:58;;;;;;;;;;;;;;;21.22;56.56;97161.81;4260884;27;5591;-66
2022/10/16 11:01:07;;;;;;;;;;;;;;;21.23;56.56;97164.25;4214875;28;5679;-66
2022/10/16 11:03:19;;;;;;;;;;;;;;;21.23;56.42;97168.81;4205570;28;5705;-66
2022/10/16 11:05:41;;;;;;;;;;;;;;;21.23;56.22;97156.19;4210876;28;5698;-66
2022/10/16 11:07:49;;;;;;;;;;;;;;;21.26;56.11;97151.38;4206074;28;6411;-67
2022/10/16 11:09:56;;;;;;;;;;;;;;;21.27;55.80;97153.81;4214167;28;5937;-68
2022/10/16 11:12:04;;;;;;;;;;;;;;;21.27;55.87;97147.63;4215794;28;5769;-67
2022/10/16 11:14:15;;;;;;;;;;;;;;;21.29;55.64;97145.50;4214105;28;5125;-67
2022/10/16 11:16:24;;;;;;;;;;;;;;;21.30;55.26;97145.28;4215930;28;5848;-67
2022/10/16 11:18:35;;;;;;;;;;;;;;;21.31;55.29;97144.19;4207330;28;5907;-67
2022/10/16 11:20:45;;;;;;;;;;;;;;;21.34;55.49;97146.38;4207415;28;5706;-67
2022/10/16 11:22:52;;;;;;;;;;;;;;;21.37;55.32;97132.41;4208001;28;5101;-67
2022/10/16 11:25:03;;;;;;;;;;;;;;;21.38;55.11;97117.91;4216726;28;5702;-67
2022/10/16 11:27:11;;;;;;;;;;;;;;;21.39;55.15;97124.91;4216803;28;5686;-67
2022/10/16 11:29:20;;;;;;;;;;;;;;;21.41;55.12;97130.06;4214758;28;6414;-67
2022/10/16 11:31:31;;;;;;;;;;;;;;;21.43;54.69;97120.66;4214814;28;5787;-67
2022/10/16 11:33:40;;;;;;;;;;;;;;;21.47;54.54;97121.75;4210257;28;5809;-68
2022/10/16 11:35:47;;;;;;;;;;;;;;;21.50;54.59;97121.25;4246605;27;6449;-66
2022/10/16 11:37:54;;;;;;;;;;;;;;;21.53;54.44;97113.75;4268806;27;5638;-67
2022/10/16 11:40:05;;;;;;;;;;;;;;;21.55;54.37;97117.00;4268441;27;6599;-66
2022/10/16 11:42:13;;;;;;;;;;;;;;;21.59;53.87;97110.03;4256653;27;5620;-66
2022/10/16 11:44:20;;;;;;;;;;;;;;;21.62;53.77;97106.81;4258864;27;6333;-66
2022/10/16 11:46:25;;;;;;;;;;;;;;;21.63;53.67;97103.91;4261814;27;5615;-66
2022/10/16 11:48:33;;;;;;;;;;;;;;;21.66;53.82;97102.56;4262029;27;5850;-67
2022/10/16 11:50:41;;;;;;;;;;;;;;;21.67;53.36;97101.50;4266707;27;7664;-67
2022/10/16 11:52:53;;;;;;;;;;;;;;;21.70;53.32;97100.97;4262447;27;5806;-66
2022/10/16 11:55:00;;;;;;;;;;;;;;;21.72;53.44;97105.03;4261575;27;6328;-66
2022/10/16 11:57:10;;;;;;;;;;;;;;;21.75;52.94;97107.22;4255141;27;5698;-67
2022/10/16 11:59:21;;;;;;;;;;;;;;;21.75;53.34;97091.09;4265143;27;5834;-66
2022/10/16 12:01:31;;;;;;;;;;;;;;;21.78;52.90;97105.91;4255013;27;5628;-66
2022/10/16 12:03:41;;;;;;;;;;;;;;;21.82;52.76;97092.75;4259854;27;5703;-66
2022/10/16 12:06:02;;;;;;;;;;;;;;;21.84;52.59;97098.66;4261269;27;6441;-66
2022/10/16 12:08:10;;;;;;;;;;;;;;;21.84;52.31;97088.72;4263628;27;5727;-66
2022/10/16 12:10:21;;;;;;;;;;;;;;;21.84;52.59;97094.09;4256779;27;5682;-66
2022/10/16 12:12:41;;;;;;;;;;;;;;;21.85;52.30;97093.03;4257472;27;5703;-66
2022/10/16 12:14:44;;;;;;;;;;;;;;;21.87;52.04;97093.59;4260712;27;6653;-66
2022/10/16 12:17:27;;;;;;;;;;;;;;;21.89;51.85;97094.16;4269108;27;5773;-66
2022/10/16 12:19:31;;;;;;;;;;;;;;;21.90;52.15;97090.38;4256879;27;5872;-66
2022/10/16 12:21:34;;;;;;;;;;;;;;;21.91;51.92;97086.63;4268387;27;5610;-66
2022/10/16 12:23:39;;;;;;;;;;;;;;;21.90;52.03;97086.88;4266866;27;5710;-66
2022/10/16 12:25:47;;;;;;;;;;;;;;;21.89;51.78;97083.38;4255453;27;5735;-66
2022/10/16 12:27:57;;;;;;;;;;;;;;;21.92;51.49;97087.44;4265472;27;5726;-66
2022/10/16 12:30:01;;;;;;;;;;;;;;;21.91;51.69;97078.56;4262725;27;5718;-66
2022/10/16 12:32:06;;;;;;;;;;;;;;;21.93;51.42;97084.47;4258607;27;5722;-66
2022/10/16 12:34:26;;;;;;;;;;;;;;;21.94;51.32;97083.41;4259302;27;6656;-66
2022/10/16 12:36:31;;;;;;;;;;;;;;;21.95;51.51;97086.91;4264042;27;5642;-66
2022/10/16 12:38:39;;;;;;;;;;;;;;;21.94;51.08;97087.97;4259480;27;5607;-66
2022/10/16 12:40:44;;;;;;;;;;;;;;;21.95;51.04;97085.03;4253331;27;5792;-67
2022/10/16 12:42:47;;;;;;;;;;;;;;;21.98;50.93;97079.16;4258993;27;5758;-67
2022/10/16 12:44:50;;;;;;;;;;;;;;;21.95;50.93;97068.06;4256504;27;5667;-67
2022/10/16 12:46:52;;;;;;;;;;;;;;;21.96;51.10;97078.56;4257547;27;5674;-67
2022/10/16 12:49:07;;;;;;;;;;;;;;;21.97;50.93;97071.31;4254715;27;5854;-66
2022/10/16 12:51:21;;;;;;;;;;;;;;;21.97;50.69;97072.16;4259067;27;5632;-66
2022/10/16 12:53:27;;;;;;;;;;;;;;;21.97;50.79;97072.16;4261576;27;5595;-67
2022/10/16 12:55:43;;;;;;;;;;;;;;;22.02;50.58;97077.56;4254327;27;5644;-67
2022/10/16 12:58:03;;;;;;;;;;;;;;;22.07;50.79;97071.41;4258785;27;6489;-67
2022/10/16 13:00:19;;;;;;;;;;;;;;;22.06;50.67;97073.28;4264518;27;5681;-67
2022/10/16 13:02:53;;;;;;;;;;;;;;;22.08;50.45;97067.63;4263225;27;5700;-66
2022/10/16 13:05:20;;;;;;;;;;;;;;;22.10;50.41;97070.91;4254974;27;5591;-66
2022/10/16 13:07:45;;;;;;;;;;;;;;;22.13;50.29;97072.25;4268004;27;5607;-67
2022/10/16 13:10:03;;;;;;;;;;;;;;;22.14;50.19;97076.56;4251492;27;5584;-67
2022/10/16 13:12:19;;;;;;;;;;;;;;;22.18;49.93;97077.66;4263836;27;5753;-67
2022/10/16 13:14:44;;;;;;;;;;;;;;;22.20;50.15;97070.13;4261683;27;5798;-67
2022/10/16 13:16:56;;;;;;;;;;;;;;;22.21;49.54;97071.78;4262763;27;5782;-67
2022/10/16 13:19:12;;;;;;;;;;;;;;;22.22;49.50;97062.63;4261212;27;6418;-67
2022/10/16 13:21:27;;;;;;;;;;;;;;;22.22;49.98;97065.31;4265002;27;5697;-67
2022/10/16 13:23:41;;;;;;;;;;;;;;;22.22;49.81;97065.31;4261068;27;5678;-67
2022/10/16 13:26:01;;;;;;;;;;;;;;;22.26;49.74;97061.03;4254646;27;5795;-67
2022/10/16 13:28:06;;;;;;;;;;;;;;;22.30;49.37;97060.22;4250608;27;5617;-67
2022/10/16 13:30:16;;;;;;;;;;;;;;;22.30;49.67;97064.81;4263834;27;5785;-67
2022/10/16 13:32:21;;;;;;;;;;;;;;;22.27;49.80;97059.97;4260347;27;5640;-67
2022/10/16 13:34:24;;;;;;;;;;;;;;;22.26;49.39;97058.34;4253876;27;5630;-67
2022/10/16 13:36:29;;;;;;;;;;;;;;;22.27;49.39;97060.75;4260683;27;5710;-67
2022/10/16 13:38:35;;;;;;;;;;;;;;;22.30;49.36;97059.41;4256768;27;5832;-67
2022/10/16 13:40:48;;;;;;;;;;;;;;;22.31;49.46;97053.81;4259626;27;5599;-67
2022/10/16 13:42:52;;;;;;;;;;;;;;;22.35;49.17;97060.28;4262649;27;6142;-67
2022/10/16 13:44:56;;;;;;;;;;;;;;;22.38;49.28;97061.63;4264025;27;5677;-67
2022/10/16 13:47:00;;;;;;;;;;;;;;;22.41;49.66;97063.78;4256769;27;5627;-67
2022/10/16 13:49:04;;;;;;;;;;;;;;;22.40;49.28;97059.47;4265895;27;5754;-67
2022/10/16 13:51:15;;;;;;;;;;;;;;;22.42;49.09;97059.22;4266167;27;5611;-67
2022/10/16 13:53:18;;;;;;;;;;;;;;;22.40;49.46;97056.78;4259679;27;5606;-67
2022/10/16 13:55:23;;;;;;;;;;;;;;;22.42;49.00;97057.31;4263203;27;5963;-67
2022/10/16 13:57:26;;;;;;;;;;;;;;;22.46;49.41;97058.44;4260442;27;5723;-67
2022/10/16 13:59:35;;;;;;;;;;;;;;;22.47;48.92;97062.75;4262550;27;5790;-67
2022/10/16 14:01:43;;;;;;;;;;;;;;;22.47;49.16;97064.66;4256863;27;5608;-67
2022/10/16 14:03:48;;;;;;;;;;;;;;;22.48;49.11;97064.38;4258527;27;5800;-67
2022/10/16 14:05:54;;;;;;;;;;;;;;;22.51;49.31;97058.47;4264934;27;5710;-67
2022/10/16 14:07:58;;;;;;;;;;;;;;;22.50;49.29;97056.84;4260637;27;5771;-67
2022/10/16 14:10:05;;;;;;;;;;;;;;;22.53;49.12;97067.06;4263917;27;5695;-67
2022/10/16 14:12:14;;;;;;;;;;;;;;;22.55;48.98;97067.66;4263756;27;5837;-67
2022/10/16 14:14:18;;;;;;;;;;;;;;;22.55;49.30;97056.06;4262803;27;5911;-67
2022/10/16 14:16:23;;;;;;;;;;;;;;;22.59;49.43;97066.03;4268495;27;5611;-67
2022/10/16 14:18:28;;;;;;;;;;;;;;;22.60;49.18;97064.97;4265203;27;5813;-67
2022/10/16 14:20:37;;;;;;;;;;;;;;;22.61;49.11;97060.38;4268216;27;5725;-67
2022/10/16 14:22:41;;;;;;;;;;;;;;;22.60;49.21;97064.97;4262109;27;5711;-67
2022/10/16 14:24:44;;;;;;;;;;;;;;;22.59;49.63;97063.34;4271103;27;5647;-67
2022/10/16 14:26:48;;;;;;;;;;;;;;;22.59;49.33;97063.34;4268230;27;5761;-67
2022/10/16 14:29:11;;;;;;;;;;;;;;;22.58;49.20;97060.91;4267097;27;6304;-67
2022/10/16 14:31:39;;;;;;;;;;;;;;;22.57;49.44;97065.50;4265541;27;6280;-67
2022/10/16 14:33:42;;;;;;;;;;;;;;;22.56;49.78;97068.47;4259926;27;6441;-67
2022/10/16 14:35:45;;;;;;;;;;;;;;;22.55;49.92;97067.66;4259906;27;5610;-67
2022/10/16 14:37:52;;;;;;;;;;;;;;;22.55;49.92;97066.84;4267213;27;5606;-67
2022/10/16 14:39:56;;;;;;;;;;;;;;;22.55;50.02;97072.22;4255992;27;5815;-67
2022/10/16 14:42:00;;;;;;;;;;;;;;;22.52;49.83;97068.16;4261358;27;5678;-67
2022/10/16 14:44:05;;;;;;;;;;;;;;;22.52;49.45;97070.84;4261940;27;5719;-67
2022/10/16 14:46:13;;;;;;;;;;;;;;;22.52;49.55;97072.72;4262235;27;5831;-67
2022/10/16 14:48:19;;;;;;;;;;;;;;;22.51;49.64;97077.31;4264709;27;5618;-67
2022/10/16 14:50:23;;;;;;;;;;;;;;;22.48;49.86;97075.16;4270623;27;5602;-67
2022/10/16 14:52:25;;;;;;;;;;;;;;;22.52;49.99;97060.06;4255321;27;5719;-67
2022/10/16 14:54:28;;;;;;;;;;;;;;;22.55;49.95;97062.25;4265162;27;5826;-67
2022/10/16 14:56:36;;;;;;;;;;;;;;;22.56;49.76;97073.84;4269112;27;5591;-67
2022/10/16 14:58:41;;;;;;;;;;;;;;;22.54;49.57;97066.03;4270088;27;5689;-67
2022/10/16 15:00:45;;;;;;;;;;;;;;;22.56;49.43;97069.28;4268967;27;6375;-66
2022/10/16 15:02:50;;;;;;;;;;;;;;;22.56;49.97;97063.06;4256652;27;5751;-66
2022/10/16 15:04:52;;;;;;;;;;;;;;;22.58;49.66;97074.38;4266343;27;5777;-66
2022/10/16 15:06:55;;;;;;;;;;;;;;;22.54;49.58;97079.50;4265397;27;5729;-66
2022/10/16 15:09:00;;;;;;;;;;;;;;;22.53;49.86;97072.47;4261713;27;5595;-66
2022/10/16 15:11:03;;;;;;;;;;;;;;;22.52;49.76;97078.94;4262769;27;5598;-66
2022/10/16 15:13:06;;;;;;;;;;;;;;;22.52;49.71;97081.63;4268409;27;5786;-68
2022/10/16 15:15:41;;;;;;;;;;;;;;;22.51;50.15;97076.50;4256326;27;5636;-67
2022/10/16 15:17:45;;;;;;;;;;;;;;;22.52;49.66;97078.94;4262819;27;5723;-68
2022/10/16 15:19:48;;;;;;;;;;;;;;;22.51;49.82;97088.09;4265347;27;5599;-68
2022/10/16 15:21:52;;;;;;;;;;;;;;;22.52;50.00;97080.81;4267088;27;5614;-66
2022/10/16 15:23:56;;;;;;;;;;;;;;;22.49;49.77;97089.44;4261597;27;5598;-67
2022/10/16 15:25:59;;;;;;;;;;;;;;;22.51;49.98;97093.47;4269750;27;5615;-68
2022/10/16 15:28:03;;;;;;;;;;;;;;;22.51;49.71;97084.59;4266774;27;5830;-68
2022/10/16 15:30:07;;;;;;;;;;;;;;;22.48;50.03;97093.19;4264553;27;5684;-67
2022/10/16 15:32:11;;;;;;;;;;;;;;;22.46;50.19;97084.56;4256959;27;5599;-68
2022/10/16 15:34:16;;;;;;;;;;;;;;;22.43;50.20;97085.91;4265072;27;5667;-67
2022/10/16 15:36:18;;;;;;;;;;;;;;;22.42;50.04;97091.53;4254177;27;5615;-69
2022/10/16 15:38:22;;;;;;;;;;;;;;;22.41;50.13;97093.41;4255260;27;5693;-68
2022/10/16 15:40:25;;;;;;;;;;;;;;;22.39;49.77;97090.19;4252778;27;5682;-68
2022/10/16 15:42:28;;;;;;;;;;;;;;;22.38;49.97;97099.34;4257805;27;5624;-67
2022/10/16 15:44:31;;;;;;;;;;;;;;;22.38;50.41;97092.06;4264454;27;5773;-67
2022/10/16 15:46:34;;;;;;;;;;;;;;;22.39;50.21;97090.19;4265833;27;5846;-67
2022/10/16 15:48:37;;;;;;;;;;;;;;;22.39;50.11;97098.25;4260276;27;5710;-68
2022/10/16 15:50:42;;;;;;;;;;;;;;;22.38;49.95;97093.94;4260126;27;5757;-68
2022/10/16 15:52:45;;;;;;;;;;;;;;;22.36;50.33;97093.41;4266239;27;5690;-67
2022/10/16 15:54:48;;;;;;;;;;;;;;;22.36;50.13;97101.50;4256806;27;5620;-68
2022/10/16 15:56:56;;;;;;;;;;;;;;;22.35;50.14;97086.41;4263543;27;5668;-68
2022/10/16 15:58:59;;;;;;;;;;;;;;;22.35;50.17;97091.78;4266059;27;5827;-68
2022/10/16 16:01:03;;;;;;;;;;;;;;;22.35;50.04;97100.69;4260440;27;5763;-66
2022/10/16 16:03:06;;;;;;;;;;;;;;;22.33;50.20;97102.00;4264923;27;5622;-68
2022/10/16 16:05:10;;;;;;;;;;;;;;;22.31;50.33;97104.13;4261733;27;5691;-67
2022/10/16 16:07:15;;;;;;;;;;;;;;;22.30;50.32;97103.31;4255521;27;5632;-68
2022/10/16 16:09:17;;;;;;;;;;;;;;;22.30;50.53;97105.22;4258719;27;5698;-67
2022/10/16 16:11:23;;;;;;;;;;;;;;;22.29;50.15;97106.28;4260839;27;5693;-67
2022/10/16 16:13:25;;;;;;;;;;;;;;;22.27;50.38;97108.44;4266102;27;5761;-67
2022/10/16 16:15:28;;;;;;;;;;;;;;;22.25;50.55;97106.00;4259326;27;5628;-67
2022/10/16 16:17:31;;;;;;;;;;;;;;;22.22;50.23;97103.84;4257387;27;5628;-66
2022/10/16 16:19:34;;;;;;;;;;;;;;;22.22;50.20;97105.72;4261032;27;5690;-66
2022/10/16 16:21:37;;;;;;;;;;;;;;;22.19;50.07;97100.81;4260141;27;5694;-67
2022/10/16 16:23:41;;;;;;;;;;;;;;;22.16;49.95;97093.28;4252195;27;6428;-66
2022/10/16 16:25:44;;;;;;;;;;;;;;;22.16;50.56;97093.28;4256612;27;5610;-67
2022/10/16 16:27:47;;;;;;;;;;;;;;;22.15;49.97;97097.03;4257405;27;5741;-66
2022/10/16 16:29:50;;;;;;;;;;;;;;;22.15;50.45;97097.03;4253415;27;5706;-67
2022/10/16 16:31:56;;;;;;;;;;;;;;;22.12;50.22;97095.69;4259587;27;5794;-66
2022/10/16 16:34:00;;;;;;;;;;;;;;;22.12;50.11;97103.75;4257973;27;5716;-66
2022/10/16 16:36:05;;;;;;;;;;;;;;;22.12;50.11;97116.41;4258467;27;5606;-66
2022/10/16 16:38:14;;;;;;;;;;;;;;;22.10;50.13;97118.56;4262487;27;5878;-67
2022/10/16 16:40:18;;;;;;;;;;;;;;;22.06;50.13;97113.66;4262974;27;5782;-67
2022/10/16 16:42:21;;;;;;;;;;;;;;;22.05;50.48;97117.41;4259812;27;5627;-67
2022/10/16 16:44:24;;;;;;;;;;;;;;;22.06;50.43;97119.06;4261538;27;5687;-67
2022/10/16 16:46:27;;;;;;;;;;;;;;;22.04;50.36;97120.34;4268106;27;5709;-66
2022/10/16 16:48:30;;;;;;;;;;;;;;;22.04;50.33;97125.75;4266827;27;5600;-69
2022/10/16 16:50:36;;;;;;;;;;;;;;;22.01;50.17;97139.72;4267787;27;5611;-66
2022/10/16 16:52:39;;;;;;;;;;;;;;;21.99;50.41;97131.91;4267268;27;5850;-71
2022/10/16 16:54:42;;;;;;;;;;;;;;;21.97;50.64;97136.75;4260256;27;5632;-71
2022/10/16 16:56:46;;;;;;;;;;;;;;;21.98;50.27;97145.63;4268782;27;5694;-70
2022/10/16 16:58:50;;;;;;;;;;;;;;;21.96;50.45;97145.88;4258404;27;5678;-70
2022/10/16 17:00:53;;;;;;;;;;;;;;;21.95;50.67;97144.25;4264277;27;5675;-70
2022/10/16 17:02:59;;;;;;;;;;;;;;;21.95;50.45;97155.00;4265356;27;5624;-70
2022/10/16 17:05:01;;;;;;;;;;;;;;;21.94;50.33;97156.09;4266521;27;5621;-70
2022/10/16 17:07:04;;;;;;;;;;;;;;;21.93;50.66;97157.16;4267285;27;6307;-71
2022/10/16 17:09:09;;;;;;;;;;;;;;;21.91;50.24;97167.38;4263260;27;5632;-70
2022/10/16 17:11:16;;;;;;;;;;;;;;;21.91;50.17;97169.25;4266182;27;5615;-70
2022/10/16 17:13:21;;;;;;;;;;;;;;;21.90;50.29;97171.13;4266894;27;5679;-70
2022/10/16 17:15:24;;;;;;;;;;;;;;;21.89;50.60;97177.59;4257393;27;5616;-69
2022/10/16 17:17:27;;;;;;;;;;;;;;;21.88;50.52;97173.28;4257334;27;5694;-69
2022/10/16 17:19:30;;;;;;;;;;;;;;;21.88;50.41;97178.66;4259635;27;5647;-69
2022/10/16 17:21:34;;;;;;;;;;;;;;;21.88;49.93;97186.72;4256310;27;6382;-67
2022/10/16 17:23:38;;;;;;;;;;;;;;;21.88;49.98;97191.31;4256906;27;5919;-67
2022/10/16 17:25:41;;;;;;;;;;;;;;;21.87;50.05;97198.56;4255277;27;5707;-66
2022/10/16 17:27:44;;;;;;;;;;;;;;;21.87;50.35;97197.75;4256204;27;5723;-67
2022/10/16 17:29:52;;;;;;;;;;;;;;;21.87;50.01;97198.56;4263333;27;5626;-67
2022/10/16 17:31:58;;;;;;;;;;;;;;;21.89;50.05;97204.50;4258143;27;6319;-67
2022/10/16 17:34:02;;;;;;;;;;;;;;;21.89;49.75;97209.06;4256314;27;5729;-68
2022/10/16 17:36:05;;;;;;;;;;;;;;;21.88;49.66;97208.25;4258157;27;5610;-75
2022/10/16 17:38:08;;;;;;;;;;;;;;;21.89;49.60;97204.50;4260600;27;6770;-70
2022/10/16 17:40:12;;;;;;;;;;;;;;;21.91;49.96;97204.25;4258298;27;5717;-67
2022/10/16 17:42:16;;;;;;;;;;;;;;;21.92;49.61;97208.56;4258576;27;5767;-66
2022/10/16 17:44:22;;;;;;;;;;;;;;;21.92;49.54;97213.94;4263577;27;5735;-72
2022/10/16 17:46:27;;;;;;;;;;;;;;;21.91;49.46;97223.09;4262857;27;5678;-68
2022/10/16 17:48:30;;;;;;;;;;;;;;;21.90;49.52;97224.16;4262055;27;5712;-71
2022/10/16 17:50:33;;;;;;;;;;;;;;;21.89;49.37;97223.34;4266858;27;5686;-65
2022/10/16 17:52:36;;;;;;;;;;;;;;;21.90;49.21;97224.16;4257127;27;5644;-72
2022/10/16 17:54:39;;;;;;;;;;;;;;;21.89;49.21;97242.19;4262597;27;5614;-65
2022/10/16 17:56:43;;;;;;;;;;;;;;;21.87;49.51;97238.13;4269871;27;5682;-65
2022/10/16 17:58:49;;;;;;;;;;;;;;;21.86;49.69;97245.38;4263841;27;5759;-66
2022/10/16 18:00:53;;;;;;;;;;;;;;;21.86;49.14;97248.06;4262233;27;5614;-72
2022/10/16 18:02:57;;;;;;;;;;;;;;;21.85;49.70;97245.63;4258809;27;5786;-63
2022/10/16 18:05:00;;;;;;;;;;;;;;;21.84;49.70;97246.69;4260853;27;5746;-63
2022/10/16 18:07:04;;;;;;;;;;;;;;;21.83;49.46;97248.56;4259856;27;5784;-63
2022/10/16 18:09:08;;;;;;;;;;;;;;;21.82;49.14;97249.63;4263137;27;7322;-64
2022/10/16 18:11:10;;;;;;;;;;;;;;;21.80;49.54;97249.88;4261650;27;5735;-64
2022/10/16 18:13:14;;;;;;;;;;;;;;;21.79;49.55;97253.66;4265361;27;5706;-64
2022/10/16 18:15:16;;;;;;;;;;;;;;;21.80;49.43;97257.16;4261404;27;5757;-65
2022/10/16 18:17:19;;;;;;;;;;;;;;;21.79;49.33;97263.59;4261099;27;5757;-64
2022/10/16 18:19:24;;;;;;;;;;;;;;;21.77;49.50;97265.75;4261875;27;5140;-66
2022/10/16 18:21:28;;;;;;;;;;;;;;;21.76;49.54;97259.56;4262904;27;5749;-60
2022/10/16 18:23:33;;;;;;;;;;;;;;;21.76;49.70;97264.13;4265193;27;5710;-62
2022/10/16 18:25:36;;;;;;;;;;;;;;;21.76;49.63;97258.75;4260119;27;5692;-62
2022/10/16 18:27:39;;;;;;;;;;;;;;;21.75;49.41;97268.69;4261781;27;5595;-61
2022/10/16 18:29:41;;;;;;;;;;;;;;;21.74;49.52;97261.66;4259761;27;5765;-65
2022/10/16 18:31:44;;;;;;;;;;;;;;;21.75;49.65;97268.69;4265047;27;5615;-65
2022/10/16 18:33:50;;;;;;;;;;;;;;;21.75;49.56;97262.50;4264714;27;5719;-65
2022/10/16 18:35:54;;;;;;;;;;;;;;;21.74;49.71;97271.59;4263040;27;5610;-65
2022/10/16 18:37:59;;;;;;;;;;;;;;;21.74;49.70;97268.91;4264662;27;6617;-76
2022/10/16 18:40:02;;;;;;;;;;;;;;;21.73;49.43;97270.78;4261659;27;6413;-65
2022/10/16 18:42:05;;;;;;;;;;;;;;;21.74;49.66;97277.81;4262749;27;5599;-66
2022/10/16 18:44:09;;;;;;;;;;;;;;;21.74;49.46;97275.09;4264132;27;5826;-63
2022/10/16 18:46:14;;;;;;;;;;;;;;;21.74;49.59;97275.09;4263630;27;5718;-63
2022/10/16 18:48:16;;;;;;;;;;;;;;;21.74;49.83;97277.81;4261838;27;5602;-72
2022/10/16 18:50:19;;;;;;;;;;;;;;;21.74;49.44;97277.00;4266263;27;5636;-79
2022/10/16 18:52:26;;;;;;;;;;;;;;;21.71;49.89;97272.94;4261964;27;6309;-79
2022/10/16 18:54:30;;;;;;;;;;;;;;;21.72;49.90;97284.50;4265050;27;5623;-80
2022/10/16 18:56:33;;;;;;;;;;;;;;;21.70;49.55;97282.06;4263892;27;5599;-79
2022/10/16 18:58:37;;;;;;;;;;;;;;;21.69;49.85;97285.03;4263689;27;5591;-79
2022/10/16 19:00:40;;;;;;;;;;;;;;;21.72;49.49;97287.19;4260816;27;5607;-79
2022/10/16 19:02:43;;;;;;;;;;;;;;;21.71;49.61;97288.25;4258130;27;5678;-79
2022/10/16 19:04:45;;;;;;;;;;;;;;;21.71;49.41;97299.03;4256810;27;6312;-80
2022/10/16 19:06:51;;;;;;;;;;;;;;;21.70;49.67;97302.78;4262483;27;5794;-80
2022/10/16 19:08:56;;;;;;;;;;;;;;;21.68;49.80;97299.53;4265322;27;6300;-80
2022/10/16 19:11:03;;;;;;;;;;;;;;;21.68;49.76;97299.53;4269212;27;5599;-80
2022/10/16 19:13:06;;;;;;;;;;;;;;;21.66;49.59;97304.38;4261438;27;5717;-79
2022/10/16 19:15:13;;;;;;;;;;;;;;;21.66;49.78;97296.28;4261275;27;5898;-66
2022/10/16 19:17:15;;;;;;;;;;;;;;;21.66;49.58;97301.66;4258071;27;5607;-74
2022/10/16 19:19:18;;;;;;;;;;;;;;;21.66;49.95;97307.06;4260759;27;5658;-80
2022/10/16 19:21:23;;;;;;;;;;;;;;;21.66;50.12;97307.06;4259918;27;5763;-69
2022/10/16 19:23:26;;;;;;;;;;;;;;;21.66;49.96;97313.25;4265224;27;5773;-67
2022/10/16 19:25:30;;;;;;;;;;;;;;;21.65;49.75;97317.00;4260179;27;5730;-73
2022/10/16 19:27:33;;;;;;;;;;;;;;;21.64;50.13;97320.75;4264346;27;6296;-73
2022/10/16 19:29:36;;;;;;;;;;;;;;;21.63;49.87;97323.69;4255945;27;5616;-75
2022/10/16 19:31:39;;;;;;;;;;;;;;;21.62;49.92;97325.56;4258694;27;5651;-76
2022/10/16 19:33:43;;;;;;;;;;;;;;;21.62;50.25;97327.44;4268678;27;5704;-81
2022/10/16 19:35:45;;;;;;;;;;;;;;;21.61;50.14;97341.94;4269552;27;5727;-78
2022/10/16 19:37:50;;;;;;;;;;;;;;;21.60;49.81;97332.25;4261907;27;5675;-80
2022/10/16 19:39:53;;;;;;;;;;;;;;;21.61;50.10;97345.47;4262615;27;5628;-80
2022/10/16 19:41:57;;;;;;;;;;;;;;;21.61;50.28;97342.75;4267583;27;5719;-71
2022/10/16 19:44:01;;;;;;;;;;;;;;;21.62;50.10;97340.88;4264748;27;5614;-74
2022/10/16 19:46:06;;;;;;;;;;;;;;;21.61;50.12;97341.94;4263470;27;5611;-74
2022/10/16 19:48:08;;;;;;;;;;;;;;;21.61;49.83;97340.06;4263325;27;5692;-72
2022/10/16 19:50:12;;;;;;;;;;;;;;;21.59;50.14;97344.09;4259438;27;5741;-78
2022/10/16 19:52:15;;;;;;;;;;;;;;;21.57;49.96;97347.03;4260394;27;5618;-76
2022/10/16 19:54:18;;;;;;;;;;;;;;;21.55;49.92;97346.47;4269096;27;5715;-82
2022/10/16 19:56:23;;;;;;;;;;;;;;;21.54;50.40;97346.72;4259148;27;5636;-74
2022/10/16 19:58:27;;;;;;;;;;;;;;;21.53;50.34;97345.91;4264344;27;5785;-73
2022/10/16 20:00:30;;;;;;;;;;;;;;;21.53;50.50;97356.66;4259175;27;5672;-75
2022/10/16 20:02:32;;;;;;;;;;;;;;;21.53;50.06;97353.16;4262203;27;5094;-75
2022/10/16 20:04:35;;;;;;;;;;;;;;;21.51;50.05;97348.00;4263455;27;5825;-78
2022/10/16 20:06:38;;;;;;;;;;;;;;;21.51;50.29;97359.59;4257675;27;5721;-79
2022/10/16 20:08:43;;;;;;;;;;;;;;;21.51;50.35;97358.78;4261615;27;5721;-74
2022/10/16 20:10:49;;;;;;;;;;;;;;;21.51;50.12;97364.97;4261564;27;5615;-72
2022/10/16 20:12:53;;;;;;;;;;;;;;;21.51;50.06;97358.78;4267155;27;5603;-72
2022/10/16 20:14:57;;;;;;;;;;;;;;;21.50;50.14;97359.84;4267541;27;6293;-71
2022/10/16 20:17:01;;;;;;;;;;;;;;;21.49;50.30;97366.28;4263085;27;5665;-71
2022/10/16 20:19:04;;;;;;;;;;;;;;;21.48;50.52;97373.53;4266879;27;5618;-69
2022/10/16 20:21:10;;;;;;;;;;;;;;;21.47;50.07;97371.91;4267397;27;5741;-70
2022/10/16 20:23:13;;;;;;;;;;;;;;;21.45;50.50;97382.13;4264921;27;5711;-79
2022/10/16 20:25:15;;;;;;;;;;;;;;;21.46;50.65;97378.34;4264962;27;5610;-80
2022/10/16 20:27:21;;;;;;;;;;;;;;;21.45;50.18;97365.16;4265426;27;5699;-72
2022/10/16 20:29:23;;;;;;;;;;;;;;;21.44;50.50;97372.41;4264798;27;5785;-72
2022/10/16 20:31:29;;;;;;;;;;;;;;;21.43;50.36;97378.06;4265772;27;5807;-75
2022/10/16 20:33:32;;;;;;;;;;;;;;;21.40;50.66;97379.34;4257437;27;5798;-74
2022/10/16 20:35:36;;;;;;;;;;;;;;;21.40;50.59;97373.97;4252922;27;6421;-78
2022/10/16 20:37:43;;;;;;;;;;;;;;;21.39;50.42;97371.53;4265584;27;5804;-86
2022/10/16 20:39:46;;;;;;;;;;;;;;;21.38;50.77;97376.09;4269577;27;5606;-81
2022/10/16 20:41:49;;;;;;;;;;;;;;;21.36;50.54;97369.34;4268698;27;5618;-82
2022/10/16 20:43:54;;;;;;;;;;;;;;;21.34;50.70;97377.66;4268715;27;5607;-78
2022/10/16 20:46:00;;;;;;;;;;;;;;;21.33;50.61;97380.59;4266847;27;5759;-78
2022/10/16 20:48:04;;;;;;;;;;;;;;;21.32;50.91;97379.78;4264114;27;5877;-78